Austin, Texas
Traffic Map
Current Weather Conditions
Austin, Texas
Few Clouds
Few Clouds
80°
Feels Like: 84°
Wind Chill: 80° Ceiling: Unl
Heat Index: 84° Visibility: 10mi
Dew Point: 71° Wind: 5mph
Humidity: 74% Direction: ° ()
Pressure: 30.06in Gusts: 0mph
Raw Report DataKATT 301451Z AUTO VRB04KT 10SM FEW019 27/22 A3006 RMK AO2 SLP167 T02670217 51002
Traffic Incident Summary
Active as of:
Severity:
Category:
InformationThere was an issue retrieving the traffic information for this location. Please try a different location or try again shortly.
Advertisements
Track Severe Weather on mobile